Chloe, West Virginia
Current Conditions -  °F | °C
As of 11:54 AM on Friday 31 Oct 2014 (Local Time) from KCRW Reporting Station
Broken Clouds Broken Clouds  
Wind Chill: 45°   Ceiling: 6500
Heat Index: 45°   Visibility: 7mi
Dew Point: 39°   Wind: 0mph
Humidity: 80%   Direction: NA
Pressure: 29.95"   Gusts: NA
Location:  38.69°N, 81.09°W
Report Text: KCRW 311554Z 00000KT 7SM FEW030 BKN065 BKN090 BKN300 07/04 A2995 RMK AO2 SLP143 T00720039
Loading
Personal Weather Stations






























Interactive Weather Map
Tropical Storm Tracking
New forecast layout! Learn more

10-Day Weather Forecast

Advertisements
Track Severe Weather on mobile